Time;durP1;ratioP1;P1;durP2;ratioP2;P2;SDS_P1;SDS_P2;PMS_P1;PMS_P2;Temp;Humidity;BMP_temperature;BMP_pressure;BME280_temperature;BME280_humidity;BME280_pressure;Samples;Min_cycle;Max_cycle;Signal;HPM_P1;HPM_P2
2022/06/30 00:01:41;;;;;;;19.90;11.50;;;21.50;78.90;;;;;;5073553;28;20070;-17
2022/06/30 00:04:07;;;;;;;19.90;12.23;;;21.50;79.00;;;;;;5073254;28;20107;-16
2022/06/30 00:06:32;;;;;;;18.92;12.65;;;21.50;79.20;;;;;;5073414;28;20052;-15
2022/06/30 00:08:59;;;;;;;17.85;12.05;;;21.40;79.20;;;;;;5073866;28;20025;-17
2022/06/30 00:11:24;;;;;;;14.48;11.10;;;21.40;79.20;;;;;;5073230;28;20021;-18
2022/06/30 00:13:51;;;;;;;20.65;14.07;;;21.40;79.10;;;;;;5073149;28;20020;-16
2022/06/30 00:16:17;;;;;;;17.48;13.18;;;21.40;79.30;;;;;;5072947;28;20403;-16
2022/06/30 00:18:43;;;;;;;20.52;14.45;;;21.30;79.40;;;;;;5073582;28;20020;-18
2022/06/30 00:21:09;;;;;;;23.30;14.57;;;21.30;79.60;;;;;;5071880;28;20108;-17
2022/06/30 00:23:35;;;;;;;16.15;11.48;;;21.20;79.90;;;;;;5072553;28;20606;-16
2022/06/30 00:26:02;;;;;;;22.95;13.27;;;21.20;79.80;;;;;;5073414;28;20037;-16
2022/06/30 00:28:28;;;;;;;17.45;12.23;;;21.20;79.90;;;;;;5073044;28;20357;-18
2022/06/30 00:30:54;;;;;;;19.48;13.63;;;21.10;80.00;;;;;;5073317;28;20029;-18
2022/06/30 00:33:20;;;;;;;18.67;12.82;;;21.10;80.10;;;;;;5073006;28;20024;-18
2022/06/30 00:35:48;;;;;;;21.40;15.00;;;21.10;80.20;;;;;;5072838;28;20058;-17
2022/06/30 00:38:14;;;;;;;17.92;12.63;;;21.10;80.20;;;;;;5073050;28;20117;-21
2022/06/30 00:40:46;;;;;;;16.48;11.85;;;21.10;80.30;;;;;;5072878;28;20028;-16
2022/06/30 00:43:13;;;;;;;18.42;13.20;;;21.00;80.30;;;;;;5073184;28;20043;-17
2022/06/30 00:45:47;;;;;;;16.60;11.65;;;21.00;80.20;;;;;;5072860;28;20052;-18
2022/06/30 00:48:15;;;;;;;16.75;11.18;;;21.00;80.30;;;;;;5073034;28;20044;-16
2022/06/30 00:50:41;;;;;;;19.58;12.95;;;21.00;80.30;;;;;;5072837;28;20027;-15
2022/06/30 00:53:09;;;;;;;15.45;11.55;;;21.00;80.30;;;;;;5073449;28;20111;-17
2022/06/30 00:55:36;;;;;;;16.42;12.10;;;21.00;80.30;;;;;;5073132;28;20146;-16
2022/06/30 00:58:05;;;;;;;22.98;14.00;;;21.00;80.30;;;;;;5073093;28;20028;-16
2022/06/30 01:00:39;;;;;;;20.67;15.05;;;20.90;80.40;;;;;;5072648;28;20021;-16
2022/06/30 01:03:09;;;;;;;34.30;19.00;;;20.90;80.60;;;;;;5073618;28;20104;-16
2022/06/30 01:05:37;;;;;;;20.88;14.50;;;20.90;80.50;;;;;;5072897;28;20029;-16
2022/06/30 01:08:04;;;;;;;19.05;12.98;;;20.90;80.70;;;;;;5072676;28;20058;-17
2022/06/30 01:13:14;;;;;;;17.15;12.00;;;20.90;80.70;;;;;;5073043;28;20483;-16
2022/06/30 01:15:40;;;;;;;18.30;12.23;;;20.90;80.70;;;;;;5073237;28;20021;-15
2022/06/30 01:18:07;;;;;;;19.08;12.80;;;20.90;80.70;;;;;;5072815;28;20032;-17
2022/06/30 01:20:34;;;;;;;20.73;14.55;;;20.90;80.70;;;;;;5072255;28;20426;-17
2022/06/30 01:23:03;;;;;;;19.90;13.77;;;20.80;81.10;;;;;;5072921;28;20036;-16
2022/06/30 01:25:29;;;;;;;19.92;13.20;;;20.80;81.10;;;;;;5071318;28;20043;-15
2022/06/30 01:27:55;;;;;;;17.60;11.88;;;20.80;80.90;;;;;;5072493;28;20032;-17
2022/06/30 01:30:23;;;;;;;13.70;11.05;;;20.70;81.00;;;;;;5072288;28;20024;-16
2022/06/30 01:32:49;;;;;;;16.63;12.13;;;20.70;81.00;;;;;;5071886;28;20119;-18
2022/06/30 01:35:15;;;;;;;22.08;16.08;;;20.70;81.10;;;;;;5074780;28;20037;-18
2022/06/30 01:37:49;;;;;;;20.75;15.32;;;20.70;81.40;;;;;;5076037;28;20418;-16
2022/06/30 01:40:17;;;;;;;22.23;14.20;;;20.60;81.50;;;;;;5075755;28;20067;-17
2022/06/30 01:42:43;;;;;;;22.02;14.73;;;20.60;81.60;;;;;;5076009;28;20013;-16
2022/06/30 01:45:09;;;;;;;17.75;12.70;;;20.50;81.90;;;;;;5075910;28;20031;-17
2022/06/30 01:47:36;;;;;;;24.45;13.90;;;20.50;81.80;;;;;;5075927;28;20102;-17
2022/06/30 01:50:08;;;;;;;22.38;14.77;;;20.50;81.80;;;;;;5076082;28;20071;-17
2022/06/30 01:52:34;;;;;;;18.08;12.57;;;20.40;81.90;;;;;;5075879;28;20025;-16
2022/06/30 01:55:00;;;;;;;17.50;13.73;;;20.40;81.90;;;;;;5074527;28;20082;-18
2022/06/30 01:57:26;;;;;;;20.85;14.38;;;20.40;81.90;;;;;;5075679;28;20450;-16
2022/06/30 01:59:52;;;;;;;19.45;14.57;;;20.40;81.90;;;;;;5075528;28;20028;-17
2022/06/30 02:02:19;;;;;;;23.50;17.10;;;20.40;82.10;;;;;;5075719;28;20075;-16
2022/06/30 02:04:48;;;;;;;20.33;14.32;;;20.40;82.30;;;;;;5075439;28;20032;-18
2022/06/30 02:07:15;;;;;;;16.40;12.20;;;20.40;82.30;;;;;;5075507;28;20029;-17
2022/06/30 02:09:42;;;;;;;16.73;12.95;;;20.40;82.20;;;;;;5075460;28;20036;-17
2022/06/30 02:14:54;;;;;;;19.20;12.90;;;20.30;82.10;;;;;;5075717;28;20439;-19
2022/06/30 02:17:19;;;;;;;19.17;13.52;;;20.30;82.10;;;;;;5075411;28;20519;-16
2022/06/30 02:19:45;;;;;;;17.75;12.20;;;20.40;82.10;;;;;;5075463;28;20063;-17
2022/06/30 02:22:11;;;;;;;22.65;15.23;;;20.30;82.10;;;;;;5075208;28;20039;-16
2022/06/30 02:24:38;;;;;;;19.88;14.02;;;20.30;82.20;;;;;;5074924;28;20033;-18
2022/06/30 02:27:04;;;;;;;18.55;12.48;;;20.30;82.40;;;;;;5075081;28;20033;-18
2022/06/30 02:29:30;;;;;;;18.58;12.40;;;20.20;82.30;;;;;;5075755;28;20384;-16
2022/06/30 02:31:56;;;;;;;18.85;14.55;;;20.20;82.30;;;;;;5075467;28;20460;-16
2022/06/30 02:34:22;;;;;;;23.85;16.73;;;20.20;82.30;;;;;;5074788;28;20020;-17
2022/06/30 02:36:48;;;;;;;21.77;14.55;;;20.20;82.50;;;;;;5074928;28;20034;-16
2022/06/30 02:39:14;;;;;;;18.50;13.27;;;20.10;82.60;;;;;;5074918;28;20028;-17
2022/06/30 02:41:40;;;;;;;27.58;16.23;;;20.10;82.60;;;;;;5075091;28;20033;-16
2022/06/30 02:44:06;;;;;;;26.55;17.65;;;20.10;82.80;;;;;;5074840;28;20078;-17
2022/06/30 02:46:33;;;;;;;22.08;15.13;;;20.00;82.80;;;;;;5074317;28;20017;-15
2022/06/30 02:48:59;;;;;;;20.52;13.48;;;20.00;82.90;;;;;;5074334;28;20392;-17
2022/06/30 02:51:25;;;;;;;18.02;13.55;;;20.00;82.90;;;;;;5074643;28;20032;-17
2022/06/30 02:53:50;;;;;;;17.42;12.35;;;19.90;82.90;;;;;;5074641;28;20031;-16
2022/06/30 02:56:16;;;;;;;19.88;13.82;;;19.90;82.90;;;;;;5074342;28;20028;-17
2022/06/30 02:58:43;;;;;;;21.58;13.57;;;19.90;83.00;;;;;;5074601;28;20135;-18
2022/06/30 03:01:09;;;;;;;22.02;14.70;;;19.90;83.00;;;;;;5074373;28;20060;-16
2022/06/30 03:03:35;;;;;;;21.13;13.68;;;20.00;83.00;;;;;;5074666;28;20109;-17
2022/06/30 03:06:04;;;;;;;19.63;14.02;;;19.90;83.00;;;;;;5074189;28;20395;-16
2022/06/30 03:08:30;;;;;;;25.10;17.92;;;19.90;83.10;;;;;;5074081;28;20387;-18
2022/06/30 03:10:56;;;;;;;21.42;15.13;;;19.90;83.00;;;;;;5074207;28;20024;-16
2022/06/30 03:13:21;;;;;;;19.50;13.95;;;19.90;83.10;;;;;;5074606;28;20095;-17
2022/06/30 03:15:49;;;;;;;17.58;13.20;;;19.90;83.40;;;;;;5074093;28;20404;-16
2022/06/30 03:18:16;;;;;;;19.52;12.50;;;19.90;83.40;;;;;;5073909;28;20033;-17
2022/06/30 03:20:42;;;;;;;20.13;13.80;;;19.90;83.40;;;;;;5073848;28;20028;-16
2022/06/30 03:23:09;;;;;;;27.88;17.60;;;19.90;83.30;;;;;;5074015;28;20028;-16
2022/06/30 03:25:35;;;;;;;34.38;22.80;;;19.80;83.80;;;;;;5074258;28;20036;-17
2022/06/30 03:28:04;;;;;;;23.20;16.50;;;19.80;85.30;;;;;;5072667;28;20492;-16
2022/06/30 03:30:30;;;;;;;25.10;16.42;;;19.70;84.40;;;;;;5074046;28;20031;-17
2022/06/30 03:32:56;;;;;;;30.63;18.60;;;19.70;84.80;;;;;;5074097;28;20388;-17
2022/06/30 03:35:22;;;;;;;28.70;19.10;;;19.70;84.60;;;;;;5073847;28;20426;-17
2022/06/30 03:37:48;;;;;;;23.20;16.45;;;19.70;84.70;;;;;;5074317;28;20024;-17
2022/06/30 03:40:13;;;;;;;24.92;16.95;;;19.70;84.40;;;;;;5073628;28;20036;-17
2022/06/30 03:42:39;;;;;;;24.95;17.92;;;19.60;84.40;;;;;;5073574;28;20028;-17
2022/06/30 03:45:06;;;;;;;23.85;16.17;;;19.70;84.50;;;;;;5074245;28;20103;-17
2022/06/30 03:47:32;;;;;;;24.77;17.83;;;19.70;84.60;;;;;;5073715;28;20017;-17
2022/06/30 03:49:58;;;;;;;27.77;17.27;;;19.80;84.90;;;;;;5073342;28;20441;-17
2022/06/30 03:52:24;;;;;;;20.63;15.25;;;19.80;84.70;;;;;;5072055;28;20069;-17
2022/06/30 03:54:50;;;;;;;30.38;20.17;;;19.90;84.30;;;;;;5073919;28;20025;-17
2022/06/30 03:57:16;;;;;;;22.80;15.52;;;19.90;84.30;;;;;;5073533;28;20070;-16
2022/06/30 03:59:42;;;;;;;24.55;15.77;;;19.90;84.20;;;;;;5073313;28;20036;-16
2022/06/30 04:02:08;;;;;;;25.88;17.75;;;20.00;84.00;;;;;;5073692;28;20028;-17
2022/06/30 04:04:34;;;;;;;21.02;15.23;;;20.10;84.20;;;;;;5072962;28;20041;-17
2022/06/30 04:07:00;;;;;;;33.33;22.05;;;20.10;83.90;;;;;;5073931;28;20096;-17
2022/06/30 04:09:26;;;;;;;29.92;19.75;;;20.20;83.90;;;;;;5073919;28;20099;-17
2022/06/30 04:11:52;;;;;;;23.48;16.52;;;20.20;83.90;;;;;;5073211;28;20060;-16
2022/06/30 04:14:18;;;;;;;28.10;18.45;;;20.30;84.00;;;;;;5072981;28;20020;-17
2022/06/30 04:16:44;;;;;;;30.27;20.33;;;20.30;84.40;;;;;;5071945;28;20082;-17
2022/06/30 04:19:09;;;;;;;27.65;17.63;;;20.40;84.20;;;;;;5073365;28;20028;-17
2022/06/30 04:21:35;;;;;;;21.73;15.50;;;20.50;84.30;;;;;;5073144;28;20041;-17
2022/06/30 04:24:01;;;;;;;22.48;16.25;;;20.50;84.40;;;;;;5073734;28;20028;-17
2022/06/30 04:26:27;;;;;;;21.30;15.20;;;20.60;84.20;;;;;;5072926;28;20547;-17
2022/06/30 04:28:54;;;;;;;24.55;16.50;;;20.60;83.90;;;;;;5073264;28;20079;-17
2022/06/30 04:34:04;;;;;;;21.88;14.05;;;20.80;83.80;;;;;;5073023;28;20399;-17
2022/06/30 04:36:30;;;;;;;25.70;17.10;;;20.90;83.10;;;;;;5072794;28;20107;-17
2022/06/30 04:38:56;;;;;;;22.33;14.80;;;21.00;83.40;;;;;;5073269;28;20075;-18
2022/06/30 04:41:24;;;;;;;21.60;13.82;;;21.00;83.20;;;;;;5072978;28;20060;-18
2022/06/30 04:43:54;;;;;;;22.63;14.30;;;21.10;82.60;;;;;;5072945;28;20027;-17
2022/06/30 04:46:21;;;;;;;26.58;16.75;;;21.20;82.60;;;;;;5072717;28;20056;-17
2022/06/30 04:48:47;;;;;;;25.02;15.07;;;21.30;82.70;;;;;;5072788;28;20055;-16
2022/06/30 04:51:13;;;;;;;22.42;15.20;;;21.40;82.30;;;;;;5073207;28;20124;-16
2022/06/30 04:53:40;;;;;;;19.33;13.52;;;21.40;82.40;;;;;;5073014;28;20519;-17
2022/06/30 04:56:07;;;;;;;23.52;16.38;;;21.50;82.40;;;;;;5072823;28;20480;-17
2022/06/30 04:58:33;;;;;;;26.95;15.88;;;21.60;82.40;;;;;;5071482;28;20024;-16
2022/06/30 05:01:01;;;;;;;23.98;14.38;;;21.70;82.70;;;;;;5072613;28;20049;-17
2022/06/30 05:03:28;;;;;;;26.67;14.82;;;21.80;82.20;;;;;;5072732;28;20506;-16
2022/06/30 05:05:54;;;;;;;21.88;13.93;;;21.90;82.10;;;;;;5072604;28;20119;-17
2022/06/30 05:08:21;;;;;;;20.90;12.05;;;21.90;82.00;;;;;;5072854;28;20028;-16
2022/06/30 05:10:47;;;;;;;23.17;13.25;;;22.00;81.50;;;;;;5076141;28;20074;-17
2022/06/30 05:13:13;;;;;;;19.60;11.98;;;22.10;81.10;;;;;;5076809;28;20028;-16
2022/06/30 05:15:39;;;;;;;18.30;10.75;;;22.20;81.00;;;;;;5076733;28;20033;-16
2022/06/30 05:18:05;;;;;;;17.30;10.30;;;22.30;80.60;;;;;;5076372;28;20519;-16
2022/06/30 05:20:32;;;;;;;16.38;10.30;;;22.40;80.20;;;;;;5076072;28;20032;-16
2022/06/30 05:22:58;;;;;;;15.43;10.23;;;22.40;80.10;;;;;;5076336;28;20123;-16
2022/06/30 05:28:09;;;;;;;14.85;10.07;;;22.70;79.60;;;;;;5076671;28;20108;-15
2022/06/30 05:30:35;;;;;;;17.00;11.40;;;22.80;79.00;;;;;;5076242;28;20032;-15
2022/06/30 05:33:01;;;;;;;17.15;10.38;;;22.90;78.90;;;;;;5076415;28;20032;-16
2022/06/30 05:35:27;;;;;;;16.88;10.55;;;23.00;78.70;;;;;;5075945;28;20487;-16
2022/06/30 05:37:53;;;;;;;18.05;9.85;;;23.20;77.50;;;;;;5076353;28;20028;-17
2022/06/30 05:40:19;;;;;;;16.95;10.35;;;23.30;77.00;;;;;;5076016;28;20422;-16
2022/06/30 05:42:45;;;;;;;18.42;10.98;;;23.40;76.60;;;;;;5075969;28;20395;-16
2022/06/30 05:45:11;;;;;;;17.98;10.02;;;23.50;76.40;;;;;;5074687;28;20054;-18
2022/06/30 05:47:47;;;;;;;19.90;11.45;;;23.70;76.20;;;;;;5075560;28;20400;-16
2022/06/30 05:50:14;;;;;;;17.73;10.90;;;23.90;75.50;;;;;;5075990;28;20044;-16
2022/06/30 05:52:42;;;;;;;21.88;11.45;;;24.00;75.30;;;;;;5076076;28;20388;-18
2022/06/30 05:55:09;;;;;;;20.30;9.82;;;24.10;74.90;;;;;;5075762;28;20139;-17
2022/06/30 05:57:55;;;;;;;18.45;10.13;;;24.20;74.60;;;;;;5075660;28;20033;-16
2022/06/30 06:00:24;;;;;;;20.27;10.52;;;24.30;74.30;;;;;;5075416;28;20064;-16
2022/06/30 06:02:50;;;;;;;20.05;10.13;;;24.40;73.90;;;;;;5075522;28;20025;-16
2022/06/30 06:05:16;;;;;;;16.73;10.45;;;24.50;73.20;;;;;;5074654;28;20134;-16
2022/06/30 06:07:43;;;;;;;20.23;10.95;;;24.60;72.60;;;;;;5075541;28;20098;-18
2022/06/30 06:10:10;;;;;;;21.65;10.52;;;24.60;72.30;;;;;;5075603;28;20021;-17
2022/06/30 06:12:37;;;;;;;17.70;10.40;;;24.70;72.40;;;;;;5075634;28;20021;-16
2022/06/30 06:15:04;;;;;;;18.95;10.02;;;24.80;72.20;;;;;;5075392;28;20051;-17
2022/06/30 06:17:31;;;;;;;17.77;9.40;;;24.90;71.80;;;;;;5075672;28;20024;-16
2022/06/30 06:19:58;;;;;;;18.20;9.40;;;25.00;71.70;;;;;;5074992;28;20483;-17
2022/06/30 06:22:24;;;;;;;16.98;9.40;;;25.00;71.70;;;;;;5074448;28;20036;-16
2022/06/30 06:24:50;;;;;;;16.05;9.35;;;25.20;71.50;;;;;;5075110;28;20108;-16
2022/06/30 06:27:16;;;;;;;17.88;9.27;;;25.30;71.10;;;;;;5075508;28;20116;-15
2022/06/30 06:29:42;;;;;;;19.67;9.65;;;25.40;70.80;;;;;;5075113;28;20020;-18
2022/06/30 06:32:08;;;;;;;16.10;9.75;;;25.50;70.30;;;;;;5075069;28;20047;-16
2022/06/30 06:34:35;;;;;;;19.00;9.00;;;25.60;70.40;;;;;;5074984;28;20438;-16
2022/06/30 06:37:01;;;;;;;19.58;10.13;;;25.70;69.80;;;;;;5075222;28;20059;-18
2022/06/30 06:39:27;;;;;;;17.05;8.75;;;25.90;69.10;;;;;;5074898;28;20491;-16
2022/06/30 06:41:53;;;;;;;16.65;9.25;;;25.90;69.10;;;;;;5074829;28;20107;-16
2022/06/30 06:44:19;;;;;;;19.80;9.13;;;26.00;68.40;;;;;;5074597;28;20111;-15
2022/06/30 06:46:45;;;;;;;15.48;9.13;;;26.10;68.20;;;;;;5074764;28;20020;-16
2022/06/30 06:49:11;;;;;;;19.48;9.30;;;26.20;68.00;;;;;;5074351;28;20044;-15
2022/06/30 06:51:37;;;;;;;21.92;9.55;;;26.30;67.40;;;;;;5074906;28;20057;-15
2022/06/30 06:54:03;;;;;;;19.48;10.05;;;26.40;67.50;;;;;;5074586;28;20115;-16
2022/06/30 06:56:29;;;;;;;18.50;9.30;;;26.50;66.30;;;;;;5074295;28;20396;-16
2022/06/30 06:58:55;;;;;;;13.20;7.88;;;26.60;66.50;;;;;;5074467;28;20021;-17
2022/06/30 07:01:21;;;;;;;17.65;9.02;;;26.70;66.60;;;;;;5075205;28;20024;-17
2022/06/30 07:03:47;;;;;;;14.98;7.90;;;26.90;65.80;;;;;;5074396;28;20024;-16
2022/06/30 07:06:13;;;;;;;20.95;8.93;;;26.90;65.40;;;;;;5074437;28;20035;-16
2022/06/30 07:08:39;;;;;;;14.18;8.48;;;27.10;64.90;;;;;;5074387;28;20029;-17
2022/06/30 07:11:05;;;;;;;18.80;9.50;;;27.20;64.70;;;;;;5074563;28;20407;-17
2022/06/30 07:13:35;;;;;;;17.42;9.10;;;27.30;64.60;;;;;;5074174;28;20028;-17
2022/06/30 07:16:02;;;;;;;19.15;9.00;;;27.40;64.30;;;;;;5074513;28;20036;-16
2022/06/30 07:18:28;;;;;;;14.93;7.53;;;27.40;63.40;;;;;;5072735;28;20058;-15
2022/06/30 07:20:55;;;;;;;15.52;8.10;;;27.50;63.60;;;;;;5074162;28;20028;-15
2022/06/30 07:23:21;;;;;;;16.17;7.85;;;27.70;63.60;;;;;;5074046;28;20037;-16
2022/06/30 07:25:47;;;;;;;16.98;9.13;;;27.90;62.50;;;;;;5074284;28;20028;-15
2022/06/30 07:28:13;;;;;;;14.27;8.32;;;27.90;62.50;;;;;;5073910;28;20031;-15
2022/06/30 07:30:39;;;;;;;19.00;8.73;;;28.00;62.40;;;;;;5074177;28;20048;-16
2022/06/30 07:33:05;;;;;;;18.95;8.65;;;28.20;62.60;;;;;;5074266;28;20154;-16
2022/06/30 07:35:31;;;;;;;19.52;8.50;;;28.40;62.30;;;;;;5073877;28;20062;-15
2022/06/30 07:37:57;;;;;;;15.75;8.50;;;28.40;62.30;;;;;;5074841;28;20052;-15
2022/06/30 07:40:23;;;;;;;17.20;8.50;;;28.60;61.90;;;;;;5073744;28;20040;-16
2022/06/30 07:42:49;;;;;;;16.77;8.10;;;28.70;61.50;;;;;;5073663;28;20387;-16
2022/06/30 07:45:15;;;;;;;14.25;6.75;;;28.90;60.60;;;;;;5073790;28;20176;-15
2022/06/30 07:47:43;;;;;;;17.20;8.02;;;29.00;60.20;;;;;;5073603;28;20028;-15
2022/06/30 07:50:10;;;;;;;17.10;8.15;;;29.20;59.10;;;;;;5073454;28;20093;-15
2022/06/30 07:52:36;;;;;;;15.68;8.00;;;29.30;59.30;;;;;;5073585;28;20388;-15
2022/06/30 07:55:04;;;;;;;17.58;7.90;;;29.40;59.30;;;;;;5073542;28;20108;-15
2022/06/30 07:57:30;;;;;;;15.10;7.75;;;29.40;58.70;;;;;;5073645;28;20028;-16
2022/06/30 07:59:56;;;;;;;14.40;7.72;;;29.60;58.20;;;;;;5073236;28;20036;-17
2022/06/30 08:02:23;;;;;;;12.98;6.80;;;29.70;58.30;;;;;;5073210;28;20033;-15
2022/06/30 08:04:49;;;;;;;16.52;7.50;;;29.80;57.20;;;;;;5074116;28;20066;-15
2022/06/30 08:07:15;;;;;;;12.32;6.50;;;30.00;57.20;;;;;;5073315;28;20549;-15
2022/06/30 08:09:40;;;;;;;14.77;7.78;;;30.20;57.10;;;;;;5073729;28;20031;-15
2022/06/30 08:12:07;;;;;;;9.68;6.03;;;30.40;56.60;;;;;;5073226;28;20388;-15
2022/06/30 08:14:34;;;;;;;10.73;5.93;;;30.70;56.60;;;;;;5073600;28;20425;-15
2022/06/30 08:17:01;;;;;;;11.40;6.18;;;30.90;55.70;;;;;;5073441;28;20028;-16
2022/06/30 08:19:27;;;;;;;14.00;7.32;;;31.20;54.30;;;;;;5073349;28;20056;-16
2022/06/30 08:21:54;;;;;;;11.63;5.63;;;31.40;54.30;;;;;;5073173;28;20036;-16
2022/06/30 08:24:19;;;;;;;14.43;6.78;;;31.80;54.20;;;;;;5073104;28;20040;-16
2022/06/30 08:26:45;;;;;;;12.98;6.22;;;32.10;52.80;;;;;;5073409;28;20068;-15
2022/06/30 08:29:12;;;;;;;12.23;5.93;;;32.30;52.30;;;;;;5073017;28;20396;-16
2022/06/30 08:31:39;;;;;;;13.27;7.03;;;32.60;52.00;;;;;;5073342;28;20052;-16
2022/06/30 08:34:06;;;;;;;15.57;6.68;;;32.70;50.90;;;;;;5073250;28;20197;-19
2022/06/30 08:36:31;;;;;;;14.40;7.13;;;32.80;50.60;;;;;;5072790;28;20108;-15
2022/06/30 08:38:57;;;;;;;10.63;5.60;;;32.90;50.10;;;;;;5073257;28;20024;-15
2022/06/30 08:44:11;;;;;;;13.50;5.55;;;33.30;49.60;;;;;;5074147;28;20044;-16
2022/06/30 08:46:38;;;;;;;10.15;5.47;;;33.40;49.00;;;;;;5076884;28;20060;-15
2022/06/30 08:49:05;;;;;;;11.95;5.53;;;33.40;47.40;;;;;;5076937;28;20127;-15
2022/06/30 08:51:36;;;;;;;11.60;5.50;;;33.50;47.80;;;;;;5077779;28;20029;-15
2022/06/30 08:54:05;;;;;;;12.57;5.70;;;33.70;46.70;;;;;;5077000;28;20107;-16
2022/06/30 08:56:34;;;;;;;12.52;5.63;;;33.80;46.50;;;;;;5077163;28;20082;-15
2022/06/30 08:59:03;;;;;;;13.18;5.45;;;34.00;46.40;;;;;;5076806;28;20083;-15
2022/06/30 09:01:31;;;;;;;12.50;5.03;;;34.10;45.60;;;;;;5076701;28;20475;-15
2022/06/30 09:03:58;;;;;;;9.75;5.43;;;34.20;45.70;;;;;;5076698;28;20038;-15
2022/06/30 09:06:24;;;;;;;17.33;6.63;;;34.40;45.80;;;;;;5076398;28;20104;-16
2022/06/30 09:08:50;;;;;;;12.05;5.70;;;34.70;45.50;;;;;;5076999;28;20024;-15
2022/06/30 09:11:16;;;;;;;15.40;6.43;;;34.70;45.70;;;;;;5076903;28;20048;-15
2022/06/30 09:13:44;;;;;;;13.60;6.28;;;34.90;45.80;;;;;;5076841;28;20033;-15
2022/06/30 09:16:12;;;;;;;12.13;6.88;;;35.10;45.00;;;;;;5076506;28;20031;-15
2022/06/30 09:18:38;;;;;;;12.18;6.25;;;35.30;44.90;;;;;;5076543;28;20033;-16
2022/06/30 09:21:22;;;;;;;13.15;5.70;;;35.40;44.90;;;;;;5076561;28;20063;-16
2022/06/30 09:23:49;;;;;;;13.70;6.30;;;35.50;43.30;;;;;;5076325;28;20510;-15
2022/06/30 09:26:22;;;;;;;11.25;6.18;;;35.70;45.00;;;;;;5076072;28;20029;-16
2022/06/30 09:28:51;;;;;;;12.07;6.00;;;35.90;44.60;;;;;;5076318;28;20028;-16
2022/06/30 09:31:33;;;;;;;12.50;5.82;;;36.10;44.50;;;;;;5076184;28;20032;-16
2022/06/30 09:34:21;;;;;;;16.40;6.57;;;36.50;43.00;;;;;;5076256;28;20017;-16
2022/06/30 09:36:52;;;;;;;13.02;5.95;;;36.70;42.00;;;;;;5076386;28;20020;-16
2022/06/30 09:39:21;;;;;;;11.73;5.47;;;36.80;41.80;;;;;;5076445;28;20154;-16
2022/06/30 09:41:48;;;;;;;12.38;5.30;;;36.90;42.00;;;;;;5075921;28;20400;-16
2022/06/30 09:44:17;;;;;;;10.65;5.60;;;37.10;41.60;;;;;;5075987;28;20016;-16
2022/06/30 09:47:01;;;;;;;13.68;6.28;;;37.30;40.40;;;;;;5074539;28;20125;-15
2022/06/30 09:49:45;;;;;;;10.93;5.95;;;37.30;38.70;;;;;;5075576;28;20061;-16
2022/06/30 09:52:22;;;;;;;12.88;6.15;;;37.40;40.40;;;;;;5075856;28;20044;-16
2022/06/30 09:54:54;;;;;;;19.17;7.20;;;37.30;39.50;;;;;;5076081;28;20438;-17
2022/06/30 09:57:22;;;;;;;10.88;5.90;;;37.00;40.40;;;;;;5076061;28;20086;-16
2022/06/30 10:00:03;;;;;;;15.77;6.95;;;36.50;41.50;;;;;;5075916;28;20036;-15
2022/06/30 10:02:37;;;;;;;15.10;6.53;;;36.40;42.10;;;;;;5075773;28;20021;-15
2022/06/30 10:05:06;;;;;;;17.58;6.68;;;36.30;41.90;;;;;;5075561;28;20472;-14
2022/06/30 10:07:37;;;;;;;14.32;7.18;;;36.30;42.30;;;;;;5075772;28;20106;-15
2022/06/30 10:10:12;;;;;;;13.63;5.75;;;36.50;41.60;;;;;;5075610;28;20590;-14
2022/06/30 10:12:40;;;;;;;15.77;6.22;;;36.90;41.30;;;;;;5075274;28;20063;-14
2022/06/30 10:15:08;;;;;;;13.30;5.85;;;37.20;40.60;;;;;;5075441;28;20484;-15
2022/06/30 10:17:48;;;;;;;10.95;5.18;;;37.60;39.80;;;;;;5075414;28;20039;-15
2022/06/30 10:20:15;;;;;;;13.50;5.63;;;37.90;39.30;;;;;;5074970;28;20078;-27
2022/06/30 10:22:42;;;;;;;14.68;6.20;;;38.30;39.00;;;;;;5074028;28;20430;-17
2022/06/30 10:25:09;;;;;;;15.13;6.75;;;38.50;38.30;;;;;;5075269;28;20028;-16
2022/06/30 10:27:34;;;;;;;13.50;6.20;;;38.70;38.10;;;;;;5075513;28;20055;-15
2022/06/30 10:30:03;;;;;;;17.40;6.70;;;38.80;37.60;;;;;;5075501;28;20468;-15
2022/06/30 10:32:50;;;;;;;17.00;7.00;;;38.90;37.40;;;;;;5075198;28;20028;-16
2022/06/30 10:35:33;;;;;;;12.88;5.63;;;38.90;37.50;;;;;;5075040;28;20029;-16
2022/06/30 10:38:38;;;;;;;14.90;5.85;;;39.00;37.20;;;;;;5075213;28;20024;-16
2022/06/30 10:41:17;;;;;;;14.43;5.80;;;39.20;36.90;;;;;;5075065;28;20126;-15
2022/06/30 10:44:05;;;;;;;12.45;5.93;;;39.50;36.60;;;;;;5074904;28;20020;-16
2022/06/30 10:46:55;;;;;;;15.98;5.90;;;39.80;35.60;;;;;;5074670;28;20039;-16
2022/06/30 10:49:23;;;;;;;12.05;5.72;;;39.90;36.10;;;;;;5074646;28;20110;-16
2022/06/30 10:51:50;;;;;;;10.88;5.43;;;40.20;36.00;;;;;;5074601;28;20031;-15
2022/06/30 10:54:34;;;;;;;14.73;5.70;;;40.20;35.70;;;;;;5074603;28;20024;-15
2022/06/30 10:57:01;;;;;;;16.52;6.38;;;40.20;35.30;;;;;;5074650;28;20029;-14
2022/06/30 10:59:31;;;;;;;13.07;5.97;;;40.10;35.30;;;;;;5074835;28;20029;-15
2022/06/30 11:02:13;;;;;;;12.88;5.72;;;40.00;35.00;;;;;;5074585;28;20078;-15
2022/06/30 11:04:41;;;;;;;18.73;6.45;;;39.80;34.60;;;;;;5074377;28;20484;-15
2022/06/30 11:07:12;;;;;;;14.27;5.88;;;39.50;36.10;;;;;;5073601;28;20571;-16
2022/06/30 11:09:44;;;;;;;9.30;5.05;;;39.40;35.90;;;;;;5074386;28;20111;-14
2022/06/30 11:12:15;;;;;;;11.90;5.85;;;39.50;35.70;;;;;;5074289;28;20043;-15
2022/06/30 11:14:56;;;;;;;13.93;5.47;;;39.40;35.90;;;;;;5074351;28;20031;-15
2022/06/30 11:17:27;;;;;;;9.98;4.90;;;39.30;36.20;;;;;;5074439;28;20039;-15
2022/06/30 11:20:05;;;;;;;11.75;4.93;;;39.30;36.80;;;;;;5074294;28;20028;-15
2022/06/30 11:22:32;;;;;;;14.13;5.85;;;39.80;36.30;;;;;;5073998;28;20040;-21
2022/06/30 11:25:07;;;;;;;14.98;5.30;;;40.20;35.60;;;;;;5074858;28;20032;-15
2022/06/30 11:27:38;;;;;;;16.70;6.05;;;40.70;34.90;;;;;;5074057;28;20027;-17
2022/06/30 11:30:10;;;;;;;15.67;5.97;;;41.00;34.00;;;;;;5073970;28;20021;-16
2022/06/30 11:32:36;;;;;;;;;;;41.30;34.00;;;;;;5074507;28;20026;-15
2022/06/30 11:35:04;;;;;;;13.68;5.65;;;41.50;33.50;;;;;;5074009;28;20062;-16
2022/06/30 11:37:33;;;;;;;10.50;5.05;;;41.70;33.90;;;;;;5073781;28;20025;-16
2022/06/30 11:40:09;;;;;;;13.55;5.50;;;41.50;34.00;;;;;;5072360;28;20044;-15
2022/06/30 11:42:39;;;;;;;10.98;5.35;;;41.10;34.30;;;;;;5073502;28;20060;-15
2022/06/30 11:45:23;;;;;;;9.15;4.90;;;40.40;34.80;;;;;;5073615;28;20040;-15
2022/06/30 11:47:53;;;;;;;18.02;6.30;;;40.30;34.80;;;;;;5073597;28;20021;-15
2022/06/30 11:50:22;;;;;;;12.00;4.97;;;40.10;34.20;;;;;;5072489;28;20024;-14
2022/06/30 11:52:51;;;;;;;13.85;5.72;;;39.90;35.30;;;;;;5072758;28;20388;-15
2022/06/30 11:55:17;;;;;;;14.13;5.60;;;39.80;34.80;;;;;;5073348;28;20017;-15
2022/06/30 11:57:49;;;;;;;14.13;5.38;;;39.60;35.30;;;;;;5073004;28;20047;-15
2022/06/30 12:00:20;;;;;;;12.50;5.80;;;39.80;35.30;;;;;;5072392;28;20385;-15
2022/06/30 12:02:48;;;;;;;12.03;5.30;;;40.00;35.10;;;;;;5073498;28;20051;-15
2022/06/30 12:05:17;;;;;;;10.82;5.22;;;40.00;34.70;;;;;;5072844;28;20078;-15
2022/06/30 12:07:44;;;;;;;14.77;5.30;;;39.70;35.30;;;;;;5073233;28;20029;-15
2022/06/30 12:10:14;;;;;;;12.38;5.20;;;39.50;35.20;;;;;;5072731;28;20016;-15
2022/06/30 12:12:40;;;;;;;9.48;5.35;;;39.60;35.00;;;;;;5072368;28;20020;-15
2022/06/30 12:15:15;;;;;;;13.15;5.80;;;39.90;34.90;;;;;;5072523;28;20028;-15
2022/06/30 12:17:47;;;;;;;9.48;5.18;;;40.40;34.10;;;;;;5072403;28;20059;-16
2022/06/30 12:20:16;;;;;;;13.52;5.60;;;41.00;33.90;;;;;;5072576;28;20044;-14
2022/06/30 12:22:45;;;;;;;10.38;4.97;;;41.60;33.00;;;;;;5072342;28;20028;-15
2022/06/30 12:25:13;;;;;;;12.65;5.05;;;42.00;33.00;;;;;;5072588;28;20025;-15
2022/06/30 12:27:46;;;;;;;12.57;5.47;;;42.40;32.30;;;;;;5072456;28;20503;-15
2022/06/30 12:30:19;;;;;;;14.90;5.80;;;42.60;31.70;;;;;;5072925;28;20345;-15
2022/06/30 12:33:02;;;;;;;13.50;5.55;;;42.30;31.50;;;;;;5072540;28;20028;-15
2022/06/30 12:35:34;;;;;;;12.75;5.72;;;42.20;32.40;;;;;;5072401;28;20375;-14
2022/06/30 12:38:19;;;;;;;11.43;5.70;;;42.40;32.70;;;;;;5072170;28;20476;-15
2022/06/30 12:40:46;;;;;;;12.77;5.82;;;42.70;33.10;;;;;;5072421;28;20526;-15
2022/06/30 12:43:13;;;;;;;15.52;6.60;;;42.70;33.30;;;;;;5072516;28;20031;-15
2022/06/30 12:45:56;;;;;;;12.25;5.53;;;42.60;33.40;;;;;;5072016;28;20388;-15
2022/06/30 12:48:50;;;;;;;18.10;6.60;;;42.60;33.00;;;;;;5026681;28;1295441;-15
2022/06/30 12:51:32;;;;;;;12.80;5.63;;;42.50;32.50;;;;;;5072779;28;20488;-14
2022/06/30 12:54:00;;;;;;;13.55;5.75;;;42.10;33.40;;;;;;5073099;28;20049;-15